Time;durP1;ratioP1;P1;durP2;ratioP2;P2;SDS_P1;SDS_P2;PMS_P1;PMS_P2;Temp;Humidity;BMP_temperature;BMP_pressure;BME280_temperature;BME280_humidity;BME280_pressure;Samples;Min_cycle;Max_cycle;Signal;HPM_P1;HPM_P2
2022/04/01 00:00:43;;;;;;;15.60;3.58;;;;;;;18.95;39.12;100664.44;2109357;28;20527;-78
2022/04/01 00:02:06;;;;;;;12.35;3.47;;;;;;;18.93;38.97;100663.59;2109948;28;20055;-79
2022/04/01 00:03:28;;;;;;;11.45;3.42;;;;;;;18.89;39.14;100657.44;2100595;28;20044;-78
2022/04/01 00:04:50;;;;;;;9.63;3.63;;;;;;;18.89;38.95;100638.69;2102577;28;20048;-78
2022/04/01 00:06:12;;;;;;;11.48;3.83;;;;;;;18.89;38.84;100640.50;2105041;28;20050;-79
2022/04/01 00:07:35;;;;;;;14.48;3.78;;;;;;;18.88;38.76;100641.41;2108637;28;20503;-79
2022/04/01 00:08:58;;;;;;;11.80;2.63;;;;;;;18.90;38.74;100642.25;2109981;28;20036;-78
2022/04/01 00:10:21;;;;;;;12.00;3.88;;;;;;;18.89;38.71;100641.38;2111769;28;20423;-78
2022/04/01 00:11:46;;;;;;;10.13;3.28;;;;;;;18.90;38.66;100648.50;2101030;28;20072;-78
2022/04/01 00:13:09;;;;;;;8.27;2.45;;;;;;;18.91;38.50;100641.31;2105838;28;20036;-78
2022/04/01 00:14:30;;;;;;;17.60;4.03;;;;;;;18.92;38.31;100645.75;2101530;28;20051;-78
2022/04/01 00:15:53;;;;;;;13.50;3.55;;;;;;;18.93;38.52;100645.75;2108316;28;20109;-77
2022/04/01 00:17:14;;;;;;;8.95;3.50;;;;;;;18.92;38.25;100640.41;2095365;28;20051;-78
2022/04/01 00:18:37;;;;;;;11.35;3.10;;;;;;;18.92;38.48;100662.69;2099034;28;20555;-78
2022/04/01 00:19:58;;;;;;;9.52;2.90;;;;;;;18.92;38.65;100660.03;2101754;28;20048;-77
2022/04/01 00:21:22;;;;;;;16.27;3.92;;;;;;;18.89;38.74;100665.47;2099411;28;20142;-77
2022/04/01 00:22:44;;;;;;;13.88;3.42;;;;;;;18.89;38.56;100676.16;2097830;28;20053;-77
2022/04/01 00:24:08;;;;;;;6.35;3.00;;;;;;;18.88;38.81;100666.38;2097916;28;20518;-78
2022/04/01 00:25:30;;;;;;;12.90;3.72;;;;;;;18.87;39.01;100669.06;2098181;28;20519;-77
2022/04/01 00:26:53;;;;;;;15.13;4.10;;;;;;;18.86;39.16;100665.50;2107460;28;20050;-78
2022/04/01 00:28:16;;;;;;;17.60;3.47;;;;;;;18.82;39.53;100660.25;2101871;28;20075;-78
2022/04/01 00:29:39;;;;;;;13.30;4.18;;;;;;;18.78;39.68;100659.41;2099743;28;20060;-78
2022/04/01 00:31:02;;;;;;;8.35;3.28;;;;;;;18.77;39.95;100662.16;2111653;28;20039;-78
2022/04/01 00:32:23;;;;;;;13.15;3.55;;;;;;;18.74;40.08;100646.13;2108319;28;20051;-78
2022/04/01 00:33:45;;;;;;;14.57;4.30;;;;;;;18.71;40.20;100655.97;2103332;28;20052;-78
2022/04/01 00:35:09;;;;;;;19.38;4.15;;;;;;;18.71;40.04;100631.91;2111439;28;20044;-78
2022/04/01 00:36:32;;;;;;;11.50;3.85;;;;;;;18.71;40.36;100639.03;2111817;28;20035;-78
2022/04/01 00:37:55;;;;;;;18.25;3.60;;;;;;;18.69;40.35;100633.75;2099081;28;20067;-78
2022/04/01 00:39:19;;;;;;;14.75;3.20;;;;;;;18.67;40.67;100594.56;2111134;27;20036;-78
2022/04/01 00:40:41;;;;;;;11.25;3.80;;;;;;;18.66;40.70;100603.50;2112904;28;20047;-79
2022/04/01 00:42:07;;;;;;;12.60;3.28;;;;;;;18.66;40.85;100595.47;2102396;28;20048;-78
2022/04/01 00:43:30;;;;;;;12.23;3.05;;;;;;;18.64;40.79;100586.63;2109761;28;20043;-78
2022/04/01 00:44:52;;;;;;;22.50;4.50;;;;;;;18.60;40.91;100568.88;2110257;28;20106;-79
2022/04/01 00:46:15;;;;;;;14.60;3.58;;;;;;;18.61;40.97;100584.88;2104956;28;20559;-78
2022/04/01 00:47:38;;;;;;;17.48;3.75;;;;;;;18.61;41.31;100597.38;2102909;28;20138;-78
2022/04/01 00:48:59;;;;;;;18.65;4.32;;;;;;;18.56;41.52;100588.56;2108983;28;20063;-78
2022/04/01 00:50:22;;;;;;;16.10;4.13;;;;;;;18.56;41.40;100583.22;2102254;28;20054;-78
2022/04/01 00:51:45;;;;;;;11.23;3.83;;;;;;;18.57;41.52;100579.63;2108605;28;20048;-78
2022/04/01 00:53:08;;;;;;;11.82;3.03;;;;;;;18.55;41.97;100600.13;2111564;28;20050;-78
2022/04/01 00:54:29;;;;;;;15.43;3.75;;;;;;;18.51;42.05;100603.78;2102314;28;20098;-78
2022/04/01 00:55:52;;;;;;;12.27;4.13;;;;;;;18.47;42.45;100596.72;2101411;28;20047;-78
2022/04/01 00:57:18;;;;;;;14.73;4.82;;;;;;;18.44;42.64;100584.31;2100063;28;20449;-79
2022/04/01 00:58:41;;;;;;;12.02;3.22;;;;;;;18.41;42.75;100589.69;2097194;28;20052;-79
2022/04/01 01:00:04;;;;;;;16.40;4.53;;;;;;;18.38;43.04;100570.19;2102194;28;20052;-78
2022/04/01 01:01:26;;;;;;;16.63;4.00;;;;;;;18.36;43.33;100601.41;2100625;28;20055;-78
2022/04/01 01:02:49;;;;;;;13.55;3.92;;;;;;;18.32;43.29;100598.78;2099592;28;20143;-78
2022/04/01 01:04:13;;;;;;;17.50;3.15;;;;;;;18.32;43.46;100601.44;2100290;28;20071;-79
2022/04/01 01:05:37;;;;;;;14.07;3.85;;;;;;;18.31;43.30;100605.03;2105332;28;20063;-78
2022/04/01 01:07:00;;;;;;;12.82;3.10;;;;;;;18.32;43.41;100620.16;2109072;27;20031;-78
2022/04/01 01:08:23;;;;;;;12.20;4.32;;;;;;;18.29;43.76;100592.63;2112308;28;20498;-79
2022/04/01 01:09:46;;;;;;;14.30;4.38;;;;;;;18.28;43.91;100601.53;2110989;28;20081;-78
2022/04/01 01:11:08;;;;;;;14.00;3.85;;;;;;;18.25;44.21;100617.63;2101121;28;20048;-78
2022/04/01 01:12:32;;;;;;;19.95;4.40;;;;;;;18.23;44.34;100616.78;2107060;28;20051;-79
2022/04/01 01:13:55;;;;;;;17.13;3.40;;;;;;;18.20;44.46;100617.72;2111573;28;21273;-78
2022/04/01 01:15:19;;;;;;;12.93;3.08;;;;;;;18.20;44.68;100622.16;2110237;28;20036;-78
2022/04/01 01:16:44;;;;;;;24.83;4.97;;;;;;;18.18;44.67;100619.50;2097964;28;20093;-79
2022/04/01 01:18:07;;;;;;;13.30;5.07;;;;;;;18.17;44.75;100628.47;2101109;28;20043;-77
2022/04/01 01:19:31;;;;;;;11.38;4.10;;;;;;;18.18;44.82;100608.81;2108514;28;20283;-78
2022/04/01 01:20:54;;;;;;;16.15;4.32;;;;;;;18.17;45.08;100622.25;2109388;28;20092;-78
2022/04/01 01:22:17;;;;;;;13.70;3.75;;;;;;;18.16;45.18;100653.41;2105919;28;20125;-78
2022/04/01 01:23:41;;;;;;;11.93;3.85;;;;;;;18.18;45.22;100658.75;2099611;28;20048;-78
2022/04/01 01:25:10;;;;;;;15.00;3.67;;;;;;;18.16;45.42;100657.88;2108191;28;20137;-78
2022/04/01 01:26:33;;;;;;;12.80;3.85;;;;;;;18.15;45.57;100659.66;2103962;28;20096;-78
2022/04/01 01:27:56;;;;;;;17.00;5.30;;;;;;;18.13;45.67;100661.47;2105640;28;20500;-78
2022/04/01 01:29:22;;;;;;;11.38;3.58;;;;;;;18.12;45.92;100659.69;2094547;28;20037;-77
2022/04/01 01:30:46;;;;;;;12.32;3.70;;;;;;;18.10;45.93;100640.16;2110582;28;20047;-78
2022/04/01 01:32:11;;;;;;;17.98;4.50;;;;;;;18.10;46.11;100640.16;2110463;28;20040;-78
2022/04/01 01:33:32;;;;;;;14.95;3.55;;;;;;;18.07;46.20;100616.16;2105227;28;20578;-78
2022/04/01 01:34:55;;;;;;;19.40;4.45;;;;;;;18.07;46.29;100620.63;2103017;28;20052;-78
2022/04/01 01:36:17;;;;;;;10.05;3.50;;;;;;;18.06;46.45;100642.91;2110332;28;20054;-78
2022/04/01 01:37:41;;;;;;;13.63;4.03;;;;;;;18.06;46.61;100619.72;2100651;28;20044;-78
2022/04/01 01:39:03;;;;;;;13.88;3.40;;;;;;;18.05;46.73;100647.34;2102935;28;20052;-78
2022/04/01 01:40:27;;;;;;;15.30;3.85;;;;;;;18.03;46.78;100649.19;2107419;28;20426;-79
2022/04/01 01:41:53;;;;;;;23.95;4.38;;;;;;;18.02;46.77;100628.72;2099342;28;20051;-78
2022/04/01 01:43:17;;;;;;;12.57;3.28;;;;;;;18.01;46.67;100624.28;2100372;28;20040;-78
2022/04/01 01:44:39;;;;;;;28.10;6.03;;;;;;;18.01;46.71;100629.63;2100481;28;20087;-78
2022/04/01 01:46:03;;;;;;;18.25;3.67;;;;;;;18.02;46.99;100625.16;2098522;28;20040;-78
2022/04/01 01:47:25;;;;;;;10.95;3.63;;;;;;;18.01;47.17;100648.31;2102654;28;20507;-78
2022/04/01 01:48:47;;;;;;;12.02;3.55;;;;;;;17.98;47.25;100639.50;2103910;28;20392;-78
2022/04/01 01:55:12;;;;;;;19.92;4.40;;;;;;;17.92;47.19;100637.78;2103151;28;20085;-78
2022/04/01 01:56:37;;;;;;;16.60;4.32;;;;;;;17.91;47.26;100642.28;2094604;28;20469;-78
2022/04/01 01:58:00;;;;;;;13.48;4.30;;;;;;;17.91;47.30;100641.38;2092412;28;20048;-78
2022/04/01 01:59:22;;;;;;;10.38;3.75;;;;;;;17.92;47.21;100635.09;2105287;28;20055;-78
2022/04/01 02:00:45;;;;;;;12.23;3.95;;;;;;;17.91;47.11;100642.28;2091097;28;20040;-77
2022/04/01 02:02:08;;;;;;;13.90;4.38;;;;;;;17.93;47.07;100628.88;2105179;28;20071;-78
2022/04/01 02:03:31;;;;;;;20.88;4.63;;;;;;;17.91;47.15;100646.72;2110867;28;20039;-78
2022/04/01 02:04:54;;;;;;;17.67;4.38;;;;;;;17.91;47.05;100646.72;2094259;28;20044;-78
2022/04/01 02:06:16;;;;;;;15.57;4.13;;;;;;;17.92;46.75;100644.00;2102604;28;20056;-77
2022/04/01 02:07:39;;;;;;;17.10;4.55;;;;;;;17.95;46.66;100637.75;2096742;28;20122;-78
2022/04/01 02:09:01;;;;;;;13.82;4.03;;;;;;;17.95;46.88;100603.03;2096168;28;20040;-78
2022/04/01 02:10:25;;;;;;;16.10;4.28;;;;;;;17.93;46.81;100613.72;2108743;28;20103;-78
2022/04/01 02:11:50;;;;;;;25.52;5.13;;;;;;;17.95;46.49;100619.03;2102552;28;20043;-77
2022/04/01 02:13:14;;;;;;;16.65;4.90;;;;;;;17.97;46.66;100586.97;2100330;28;20039;-77
2022/04/01 02:14:37;;;;;;;14.65;4.20;;;;;;;17.97;46.67;100635.94;2107830;28;20127;-76
2022/04/01 02:15:59;;;;;;;15.48;4.50;;;;;;;18.00;46.51;100627.84;2102571;28;20114;-76
2022/04/01 02:17:22;;;;;;;19.73;3.90;;;;;;;17.99;46.42;100609.19;2100109;28;20086;-77
2022/04/01 02:18:45;;;;;;;17.92;4.80;;;;;;;18.00;46.27;100629.66;2107929;28;20249;-77
2022/04/01 02:20:10;;;;;;;13.93;4.32;;;;;;;18.00;46.21;100625.19;2101910;28;20094;-77
2022/04/01 02:21:33;;;;;;;11.95;4.78;;;;;;;18.03;45.79;100624.25;2107830;28;20048;-77
2022/04/01 02:22:55;;;;;;;13.93;3.88;;;;;;;18.05;45.81;100638.50;2119509;27;20178;-76
2022/04/01 02:24:18;;;;;;;17.90;3.80;;;;;;;18.05;46.01;100634.00;2101555;28;20479;-77
2022/04/01 02:25:42;;;;;;;17.70;4.15;;;;;;;18.05;46.12;100633.16;2106530;28;20031;-77
2022/04/01 02:27:07;;;;;;;12.98;3.35;;;;;;;18.03;46.17;100629.59;2105816;28;20450;-78
2022/04/01 02:28:29;;;;;;;18.63;4.72;;;;;;;18.03;45.89;100645.63;2094515;28;20207;-77
2022/04/01 02:29:53;;;;;;;19.73;4.40;;;;;;;18.03;45.52;100635.84;2098242;28;20556;-78
2022/04/01 02:31:34;;;;;;;14.68;2.95;;;;;;;18.09;45.37;100640.19;2111313;28;20706;-77
2022/04/01 02:33:27;;;;;;;18.35;4.32;;;;;;;18.09;45.59;100654.44;2079082;28;20090;-76
2022/04/01 02:34:54;;;;;;;15.68;3.83;;;;;;;18.07;45.65;100642.00;2098417;28;20040;-77
2022/04/01 02:36:17;;;;;;;16.60;3.92;;;;;;;18.05;45.73;100633.16;2096288;28;20044;-77
2022/04/01 02:37:41;;;;;;;9.73;3.95;;;;;;;18.06;45.96;100621.53;2111143;28;20040;-77
2022/04/01 02:39:06;;;;;;;12.40;3.67;;;;;;;18.06;45.92;100622.41;2109822;28;20039;-76
2022/04/01 02:40:28;;;;;;;14.27;3.50;;;;;;;18.05;46.09;100638.50;2108190;28;20126;-77
2022/04/01 02:41:52;;;;;;;;;;;;;;;18.03;46.13;100643.84;2104202;28;20089;-76
2022/04/01 02:43:16;;;;;;;19.20;3.75;;;;;;;17.98;46.37;100635.03;2102359;28;19927;-76
2022/04/01 02:44:41;;;;;;;13.15;4.10;;;;;;;17.96;46.51;100639.50;2094333;28;20041;-76
2022/04/01 02:46:04;;;;;;;16.63;3.63;;;;;;;17.96;46.47;100626.16;2107122;28;20035;-77
2022/04/01 02:47:28;;;;;;;16.50;4.80;;;;;;;17.97;46.44;100619.03;2103351;28;20052;-77
2022/04/01 02:48:51;;;;;;;16.95;3.65;;;;;;;17.97;46.31;100600.34;2099462;28;20101;-77
2022/04/01 02:50:33;;;;;;;11.73;3.33;;;;;;;17.96;46.86;100635.97;2111834;28;20081;-77
2022/04/01 02:51:55;;;;;;;19.35;3.97;;;;;;;17.92;46.85;100621.75;2105210;28;20566;-78
2022/04/01 02:53:17;;;;;;;13.85;3.28;;;;;;;17.93;47.02;100628.88;2096973;28;20078;-77
2022/04/01 02:54:40;;;;;;;20.63;3.60;;;;;;;17.91;47.13;100631.59;2111570;27;20047;-77
2022/04/01 02:56:04;;;;;;;19.63;4.35;;;;;;;17.90;47.43;100628.94;2103913;28;20048;-76
2022/04/01 02:57:27;;;;;;;12.88;4.50;;;;;;;17.89;47.56;100632.50;2093822;28;20047;-78
2022/04/01 02:58:52;;;;;;;10.48;3.17;;;;;;;17.86;47.86;100644.09;2093375;28;20649;-77
2022/04/01 03:00:21;;;;;;;9.85;3.67;;;;;;;17.84;48.06;100637.94;2106098;28;20085;-77
2022/04/01 03:01:51;;;;;;;21.25;4.32;;;;;;;17.81;48.11;100632.63;2088261;28;20123;-77
2022/04/01 03:03:13;;;;;;;14.43;4.05;;;;;;;17.81;48.30;100637.09;2090872;28;20036;-77
2022/04/01 03:04:36;;;;;;;13.35;3.50;;;;;;;17.80;48.65;100632.66;2093728;28;20056;-79
2022/04/01 03:05:59;;;;;;;15.82;3.55;;;;;;;17.81;48.58;100629.94;2098520;28;20127;-76
2022/04/01 03:07:22;;;;;;;15.55;3.70;;;;;;;17.79;48.87;100623.75;2099517;28;20044;-76
2022/04/01 03:08:45;;;;;;;14.40;3.78;;;;;;;17.80;48.84;100613.94;2091902;28;20396;-75
2022/04/01 03:10:09;;;;;;;18.08;3.72;;;;;;;17.79;48.96;100614.84;2091089;28;20045;-77
2022/04/01 03:11:32;;;;;;;15.65;4.47;;;;;;;17.77;49.15;100617.56;2096398;28;20147;-76
2022/04/01 03:12:54;;;;;;;15.63;4.05;;;;;;;17.75;49.34;100632.72;2093791;28;20074;-76
2022/04/01 03:14:40;;;;;;;18.08;3.88;;;;;;;17.74;49.73;100630.94;2096439;28;20319;-76
2022/04/01 03:16:22;;;;;;;11.70;2.90;;;;;;;17.70;49.81;100615.91;2116830;27;20047;-76
2022/04/01 03:17:50;;;;;;;17.00;4.93;;;;;;;17.70;50.04;100626.59;2104804;28;20036;-76
2022/04/01 03:19:22;;;;;;;12.82;3.72;;;;;;;17.69;50.15;100605.25;2095171;28;20393;-76
2022/04/01 03:20:45;;;;;;;15.25;4.35;;;;;;;17.68;50.29;100612.38;2096672;28;20040;-76
2022/04/01 03:22:07;;;;;;;16.38;4.07;;;;;;;17.70;50.27;100623.91;2097789;28;20040;-76
2022/04/01 03:23:30;;;;;;;19.50;4.05;;;;;;;17.70;50.23;100609.69;2100166;28;20040;-75
2022/04/01 03:24:53;;;;;;;17.23;4.07;;;;;;;17.71;50.22;100619.47;2102272;28;20043;-75
2022/04/01 03:26:16;;;;;;;14.73;4.05;;;;;;;17.71;49.82;100639.03;2093621;28;20095;-75
2022/04/01 03:27:47;;;;;;;12.50;3.20;;;;;;;17.73;49.64;100630.97;2095048;28;20052;-76
2022/04/01 03:29:10;;;;;;;17.88;4.00;;;;;;;17.75;49.62;100642.53;2094363;28;20036;-75
2022/04/01 03:30:34;;;;;;;9.93;2.53;;;;;;;17.77;49.42;100640.72;2098598;28;20463;-75
2022/04/01 03:31:57;;;;;;;10.32;2.90;;;;;;;17.76;49.44;100665.66;2107220;28;20043;-75
2022/04/01 03:33:19;;;;;;;21.80;4.47;;;;;;;17.77;49.40;100678.09;2096542;28;20052;-77
2022/04/01 03:34:43;;;;;;;14.90;3.83;;;;;;;17.76;49.50;100687.00;2097107;28;20127;-76
2022/04/01 03:36:07;;;;;;;10.70;3.50;;;;;;;17.74;49.46;100692.38;2099762;28;20800;-75
2022/04/01 03:37:35;;;;;;;19.42;4.75;;;;;;;17.75;49.02;100703.94;2101080;28;20059;-76
2022/04/01 03:38:58;;;;;;;14.95;3.70;;;;;;;17.74;49.02;100705.72;2098731;28;20067;-76
2022/04/01 03:40:29;;;;;;;19.08;4.13;;;;;;;17.75;48.94;100710.16;2096758;28;20079;-76
2022/04/01 03:41:52;;;;;;;17.90;3.83;;;;;;;17.76;48.62;100706.59;2095074;28;20052;-76
2022/04/01 03:43:14;;;;;;;19.20;4.22;;;;;;;17.77;48.34;100712.81;2099352;28;20048;-76
2022/04/01 03:44:41;;;;;;;;;;;;;;;17.78;48.57;100703.91;2094833;28;20083;-77
2022/04/01 03:46:27;;;;;;;12.73;3.47;;;;;;;17.77;48.12;100704.81;2108227;28;19996;-77
2022/04/01 03:47:59;;;;;;;16.58;3.78;;;;;;;17.82;48.06;100706.50;2102345;28;20135;-76
2022/04/01 03:49:22;;;;;;;;;;;;;;;17.82;48.14;100700.28;2103600;28;20431;-76
2022/04/01 03:50:49;;;;;;;18.58;3.03;;;;;;;17.79;48.39;100690.50;2098444;28;19920;-76
2022/04/01 03:52:13;;;;;;;15.02;3.20;;;;;;;17.77;48.28;100691.47;2109256;28;20140;-76
2022/04/01 03:53:41;;;;;;;14.00;3.13;;;;;;;17.78;48.14;100694.09;2099557;28;20079;-77
2022/04/01 03:55:11;;;;;;;17.08;3.05;;;;;;;17.78;47.97;100693.22;2103396;28;20043;-75
2022/04/01 03:57:01;;;;;;;8.43;2.88;;;;;;;17.79;47.60;100695.84;2113038;28;20047;-75
2022/04/01 03:58:31;;;;;;;16.48;3.35;;;;;;;17.85;47.20;100700.25;2109362;28;20130;-76
2022/04/01 04:00:14;;;;;;;14.20;3.50;;;;;;;17.89;47.26;100705.50;2117014;28;20044;-76
2022/04/01 04:01:39;;;;;;;12.05;2.17;;;;;;;17.91;47.27;100706.38;2104436;28;20093;-76
2022/04/01 04:03:06;;;;;;;18.00;4.70;;;;;;;17.95;47.06;100692.94;2102035;28;20055;-76
2022/04/01 04:04:29;;;;;;;10.52;3.47;;;;;;;17.95;47.12;100703.63;2098060;28;20044;-76
2022/04/01 04:05:53;;;;;;;12.73;2.78;;;;;;;17.98;47.28;100703.59;2095888;28;20159;-76
2022/04/01 04:07:17;;;;;;;13.23;3.28;;;;;;;17.99;47.47;100708.00;2100730;28;20043;-77
2022/04/01 04:08:46;;;;;;;13.00;3.88;;;;;;;17.99;47.62;100713.34;2101721;28;20051;-77
2022/04/01 04:10:09;;;;;;;12.35;2.45;;;;;;;17.97;47.91;100710.72;2093503;28;20050;-76
2022/04/01 04:11:51;;;;;;;19.45;3.67;;;;;;;17.95;48.31;100717.00;2102482;28;20068;-77
2022/04/01 04:13:22;;;;;;;17.10;4.78;;;;;;;17.93;48.65;100715.22;2102979;28;20127;-76
2022/04/01 04:14:44;;;;;;;13.30;4.18;;;;;;;17.93;48.83;100709.00;2103597;28;20422;-76
2022/04/01 04:16:19;;;;;;;18.83;3.97;;;;;;;17.95;48.95;100711.66;2098909;28;20070;-76
2022/04/01 04:17:46;;;;;;;14.20;3.20;;;;;;;17.93;49.04;100706.31;2103381;28;20040;-76
2022/04/01 04:19:10;;;;;;;16.35;3.08;;;;;;;17.92;49.16;100707.22;2103837;28;20091;-77
2022/04/01 04:20:36;;;;;;;14.07;3.13;;;;;;;17.92;48.92;100704.56;2101275;28;20048;-76
2022/04/01 04:22:08;;;;;;;13.95;3.40;;;;;;;17.94;48.92;100710.75;2101755;28;20051;-76
2022/04/01 04:23:39;;;;;;;18.13;4.30;;;;;;;17.95;49.39;100704.53;2108782;28;20043;-76
2022/04/01 04:25:10;;;;;;;12.23;3.00;;;;;;;17.95;49.48;100704.53;2103472;28;20085;-76
2022/04/01 04:26:39;;;;;;;15.05;3.28;;;;;;;17.95;49.74;100703.63;2104664;28;20121;-76
2022/04/01 04:28:01;;;;;;;14.25;3.67;;;;;;;17.96;50.13;100716.97;2095909;28;20041;-76
2022/04/01 04:29:30;;;;;;;17.00;3.90;;;;;;;17.97;50.57;100721.41;2104323;28;20079;-76
2022/04/01 04:31:14;;;;;;;7.38;2.45;;;;;;;17.99;50.20;100716.03;2111795;28;20070;-76
2022/04/01 04:32:51;;;;;;;22.08;4.32;;;;;;;18.04;50.03;100716.88;2104421;28;20138;-76
2022/04/01 04:34:15;;;;;;;;;;;;;;;18.05;50.41;100708.78;2104360;28;20126;-76
2022/04/01 04:35:40;;;;;;;8.63;2.78;;;;;;;18.06;50.65;100688.31;2094597;28;19970;-77
2022/04/01 04:37:08;;;;;;;15.18;3.40;;;;;;;18.09;50.19;100699.84;2109209;28;20914;-76
2022/04/01 04:38:40;;;;;;;16.58;4.30;;;;;;;18.15;50.43;100677.47;2106139;28;20044;-76
2022/04/01 04:40:03;;;;;;;18.83;4.72;;;;;;;18.18;50.45;100664.94;2100386;28;20044;-76
2022/04/01 04:41:27;;;;;;;8.65;2.53;;;;;;;18.24;50.38;100672.00;2095100;28;20055;-79
2022/04/01 04:43:00;;;;;;;11.85;3.72;;;;;;;18.31;49.69;100650.44;2111474;28;20069;-76
2022/04/01 04:44:27;;;;;;;14.57;3.47;;;;;;;18.41;49.59;100650.31;2106122;28;20040;-76
2022/04/01 04:45:56;;;;;;;17.20;4.22;;;;;;;18.47;49.58;100671.56;2095701;28;20076;-76
2022/04/01 04:47:25;;;;;;;21.40;4.10;;;;;;;18.53;49.49;100660.75;2099615;28;20040;-76
2022/04/01 04:48:52;;;;;;;17.23;4.35;;;;;;;18.60;49.37;100662.44;2102229;28;20120;-76
2022/04/01 04:50:16;;;;;;;8.70;2.72;;;;;;;18.64;49.45;100682.91;2101187;28;20067;-76
2022/04/01 04:51:41;;;;;;;13.52;4.75;;;;;;;18.67;49.38;100677.47;2107577;28;20038;-75
2022/04/01 04:53:19;;;;;;;13.98;3.42;;;;;;;18.70;49.41;100690.81;2103513;28;20044;-78
2022/04/01 04:54:41;;;;;;;15.40;4.13;;;;;;;18.74;49.00;100672.88;2101761;28;20435;-77
2022/04/01 04:56:26;;;;;;;12.02;3.20;;;;;;;18.76;48.75;100682.66;2097831;28;20102;-77
2022/04/01 04:57:53;;;;;;;20.80;3.42;;;;;;;18.83;48.79;100699.47;2101426;28;20271;-77
2022/04/01 04:59:18;;;;;;;18.30;4.50;;;;;;;18.84;48.36;100672.66;2098142;28;20448;-77
2022/04/01 05:00:47;;;;;;;14.52;3.80;;;;;;;18.89;48.20;100660.09;2109148;28;20086;-76
2022/04/01 05:02:19;;;;;;;14.38;4.35;;;;;;;18.93;47.72;100676.97;2104272;28;20043;-76
2022/04/01 05:03:58;;;;;;;13.20;3.42;;;;;;;18.98;47.63;100681.31;2094477;28;20040;-76
2022/04/01 05:05:28;;;;;;;9.65;3.08;;;;;;;18.99;47.33;100685.75;2104775;28;20082;-76
2022/04/01 05:07:37;;;;;;;13.95;4.38;;;;;;;18.92;47.66;100686.78;2113394;28;20137;-76
2022/04/01 05:09:26;;;;;;;10.20;2.95;;;;;;;18.88;48.17;100692.22;2119717;27;20472;-76
2022/04/01 05:11:23;;;;;;;10.68;3.30;;;;;;;18.84;48.67;100703.91;2112465;28;20070;-76
2022/04/01 05:12:59;;;;;;;12.95;3.78;;;;;;;18.76;48.71;100706.72;2103522;28;20381;-78
2022/04/01 05:15:04;;;;;;;10.43;3.70;;;;;;;18.66;49.22;100706.00;2103365;28;20131;-77
2022/04/01 05:16:39;;;;;;;14.60;3.42;;;;;;;18.61;49.65;100704.31;2103860;28;20067;-77
2022/04/01 05:18:12;;;;;;;12.07;3.28;;;;;;;18.57;50.10;100710.66;2106770;28;20035;-77
2022/04/01 05:19:42;;;;;;;14.13;3.75;;;;;;;18.53;50.55;100703.53;2104722;28;20135;-77
2022/04/01 05:21:05;;;;;;;20.98;5.03;;;;;;;18.50;50.66;100700.94;2107760;28;20054;-77
2022/04/01 05:22:38;;;;;;;16.60;3.83;;;;;;;18.47;50.76;100692.97;2110087;28;20530;-77
2022/04/01 05:24:04;;;;;;;13.70;3.88;;;;;;;18.44;50.77;100717.97;2109027;28;20121;-77
2022/04/01 05:25:32;;;;;;;17.83;4.00;;;;;;;18.45;50.96;100700.13;2104359;28;20066;-77
2022/04/01 05:27:05;;;;;;;18.20;4.63;;;;;;;18.44;51.04;100691.25;2102739;28;20071;-76
2022/04/01 05:28:48;;;;;;;20.27;3.67;;;;;;;18.43;51.21;100672.56;2105771;28;20040;-75
2022/04/01 05:30:16;;;;;;;24.27;4.43;;;;;;;18.43;51.41;100673.44;2105525;28;20206;-78
2022/04/01 05:32:02;;;;;;;20.00;5.88;;;;;;;18.43;51.42;100696.59;2105106;28;20147;-76
2022/04/01 05:33:29;;;;;;;13.00;4.20;;;;;;;18.41;51.70;100707.31;2095660;28;20036;-78
2022/04/01 05:34:53;;;;;;;18.20;4.45;;;;;;;18.42;51.70;100690.38;2101020;28;20148;-77
2022/04/01 05:36:17;;;;;;;38.28;5.22;;;;;;;18.42;51.79;100709.09;2095935;28;20139;-75
2022/04/01 05:37:40;;;;;;;18.50;4.50;;;;;;;18.41;52.01;100701.09;2099129;28;20048;-76
2022/04/01 05:39:04;;;;;;;17.50;4.13;;;;;;;18.42;51.92;100716.22;2092415;28;20052;-78
2022/04/01 05:40:28;;;;;;;17.00;4.97;;;;;;;18.41;52.07;100693.06;2103759;28;20048;-78
2022/04/01 05:41:52;;;;;;;15.75;4.95;;;;;;;18.39;52.04;100702.91;2100418;28;20040;-77
2022/04/01 05:43:15;;;;;;;19.85;5.53;;;;;;;18.41;51.77;100696.63;2100169;28;20627;-77
2022/04/01 05:44:59;;;;;;;17.27;4.07;;;;;;;18.43;51.83;100653.84;2104500;28;20048;-76
2022/04/01 05:46:23;;;;;;;17.55;5.10;;;;;;;18.44;51.62;100677.00;2101976;28;20078;-75
2022/04/01 05:47:48;;;;;;;13.02;4.10;;;;;;;18.45;51.59;100695.66;2100948;28;20411;-77
2022/04/01 05:49:15;;;;;;;12.50;4.00;;;;;;;18.46;51.25;100697.41;2108575;28;20047;-77
2022/04/01 05:50:39;;;;;;;15.55;4.00;;;;;;;18.48;51.07;100692.94;2109216;28;20048;-76
2022/04/01 05:52:02;;;;;;;18.73;4.63;;;;;;;18.51;50.99;100697.38;2103034;28;20040;-77
2022/04/01 05:53:30;;;;;;;15.93;3.85;;;;;;;18.51;51.02;100716.06;2111137;28;20050;-77
2022/04/01 05:54:53;;;;;;;21.10;4.38;;;;;;;18.53;51.13;100698.19;2098951;28;20048;-78
2022/04/01 05:56:17;;;;;;;11.48;3.95;;;;;;;18.55;50.63;100691.03;2099696;28;20074;-76
2022/04/01 05:57:41;;;;;;;14.73;3.80;;;;;;;18.57;50.11;100707.97;2106504;28;20054;-76
2022/04/01 05:59:03;;;;;;;18.88;4.68;;;;;;;18.60;49.85;100713.25;2102767;28;20426;-76
2022/04/01 06:00:28;;;;;;;13.77;5.20;;;;;;;18.63;50.13;100703.41;2096132;28;20060;-77
2022/04/01 06:02:01;;;;;;;13.95;5.10;;;;;;;18.65;49.96;100693.53;2102036;28;20040;-78
2022/04/01 06:03:50;;;;;;;21.20;4.30;;;;;;;18.69;49.68;100699.72;2102868;28;20723;-77
2022/04/01 06:05:19;;;;;;;16.08;4.95;;;;;;;18.73;49.23;100714.78;2102618;28;20044;-76
2022/04/01 06:06:45;;;;;;;15.70;4.55;;;;;;;18.76;49.21;100696.03;2100737;28;20434;-77
2022/04/01 06:08:18;;;;;;;17.40;3.92;;;;;;;18.78;49.08;100704.88;2105405;28;20051;-77
2022/04/01 06:09:53;;;;;;;14.38;3.85;;;;;;;18.84;48.45;100710.13;2110973;27;20535;-77
2022/04/01 06:11:59;;;;;;;19.17;3.55;;;;;;;18.90;48.33;100711.81;2100651;28;20419;-77
2022/04/01 06:13:52;;;;;;;13.02;3.65;;;;;;;18.94;48.15;100713.50;2114732;27;20051;-77
2022/04/01 06:15:43;;;;;;;27.75;5.15;;;;;;;18.95;48.04;100710.81;2107757;28;20059;-78
2022/04/01 06:17:36;;;;;;;11.70;3.80;;;;;;;18.99;47.70;100701.81;2112612;28;20063;-77
2022/04/01 06:19:12;;;;;;;16.42;3.72;;;;;;;19.03;47.76;100689.25;2104412;28;20504;-77
2022/04/01 06:20:38;;;;;;;15.10;5.13;;;;;;;19.05;47.47;100698.13;2102935;28;20113;-77
2022/04/01 06:22:06;;;;;;;11.93;3.60;;;;;;;19.09;47.45;100690.03;2094285;28;20059;-77
2022/04/01 06:23:50;;;;;;;10.35;2.92;;;;;;;19.10;47.62;100675.69;2103266;28;20048;-77
2022/04/01 06:25:15;;;;;;;12.10;3.40;;;;;;;19.12;47.51;100678.34;2103166;28;20068;-77
2022/04/01 06:26:53;;;;;;;12.80;3.83;;;;;;;19.17;46.95;100688.94;2106619;28;20654;-77
2022/04/01 06:28:19;;;;;;;15.25;3.50;;;;;;;19.21;46.82;100690.66;2108179;28;20044;-77
2022/04/01 06:29:45;;;;;;;13.05;3.65;;;;;;;19.28;46.02;100687.84;2102819;28;20044;-78
2022/04/01 06:31:09;;;;;;;13.45;3.80;;;;;;;19.33;45.90;100675.22;2101884;28;20052;-78
2022/04/01 06:32:42;;;;;;;13.82;3.95;;;;;;;19.39;45.21;100672.41;2094566;28;20072;-78
2022/04/01 06:34:14;;;;;;;16.10;4.68;;;;;;;19.45;44.83;100692.81;2100443;28;20044;-77
2022/04/01 06:35:58;;;;;;;14.15;4.53;;;;;;;19.52;44.52;100677.53;2105035;28;20416;-77
2022/04/01 06:37:30;;;;;;;15.13;4.50;;;;;;;19.59;43.99;100680.03;2102642;28;20052;-79
2022/04/01 06:38:57;;;;;;;15.95;4.18;;;;;;;19.65;43.58;100708.47;2099999;28;20052;-78
2022/04/01 06:40:52;;;;;;;;;;;;;;;;;;;;;
2022/04/01 06:42:24;;;;;;;13.20;3.30;;;;;;;19.79;43.58;100717.97;2103779;28;20047;-76
2022/04/01 06:44:11;;;;;;;11.65;4.13;;;;;;;19.83;43.35;100708.03;2104500;28;20063;-76
2022/04/01 06:46:12;;;;;;;16.42;4.32;;;;;;;19.87;43.65;100723.16;2120764;27;20049;-77
2022/04/01 06:47:45;;;;;;;15.55;4.35;;;;;;;19.87;43.93;100702.59;2103594;28;20070;-76
2022/04/01 06:49:09;;;;;;;16.23;4.22;;;;;;;19.90;44.03;100720.38;2101534;28;20052;-77